Time;durP1;ratioP1;P1;durP2;ratioP2;P2;SDS_P1;SDS_P2;PMS_P1;PMS_P2;Temp;Humidity;BMP_temperature;BMP_pressure;BME280_temperature;BME280_humidity;BME280_pressure;Samples;Min_cycle;Max_cycle;Signal;HPM_P1;HPM_P2
2022/09/22 00:01:13;;;;;;;;;;;;;;;17.05;47.02;100799.31;5016252;28;1166;-52
2022/09/22 00:03:40;;;;;;;;;;;;;;;16.92;46.28;100786.16;5016402;28;1163;-50
2022/09/22 00:06:06;;;;;;;;;;;;;;;18.20;47.66;100784.97;5015679;28;1148;-48
2022/09/22 00:08:32;;;;;;;;;;;;;;;17.48;48.54;100789.94;4998997;28;1175;-52
2022/09/22 00:11:02;;;;;;;;;;;;;;;17.20;47.59;100775.69;5016277;28;1894;-52
2022/09/22 00:13:27;;;;;;;;;;;;;;;17.06;46.89;100776.25;5016155;28;1219;-50
2022/09/22 00:15:53;;;;;;;;;;;;;;;18.11;48.04;100778.41;5016512;28;1101;-52
2022/09/22 00:18:18;;;;;;;;;;;;;;;17.43;48.20;100782.50;5016108;28;1234;-51
2022/09/22 00:20:44;;;;;;;;;;;;;;;17.06;47.44;100773.50;4998690;28;1132;-51
2022/09/22 00:23:09;;;;;;;;;;;;;;;17.42;47.82;100767.94;5007343;28;1135;-51
2022/09/22 00:25:38;;;;;;;;;;;;;;;17.63;48.33;100759.63;5016450;28;1140;-50
2022/09/22 00:28:03;;;;;;;;;;;;;;;17.27;47.45;100767.97;5015834;28;1164;-49
2022/09/22 00:30:30;;;;;;;;;;;;;;;17.12;46.98;100765.25;5019586;28;1961;-52
2022/09/22 00:32:55;;;;;;;;;;;;;;;17.43;47.30;100763.25;5019528;28;1171;-51
2022/09/22 00:35:21;;;;;;;;;;;;;;;17.64;47.84;100761.25;5019094;28;1207;-52
2022/09/22 00:37:46;;;;;;;;;;;;;;;17.10;47.89;100744.38;5020027;28;1152;-53
2022/09/22 00:40:11;;;;;;;;;;;;;;;17.20;47.57;100750.97;5019905;28;1179;-53
2022/09/22 00:42:37;;;;;;;;;;;;;;;17.94;47.82;100756.78;5018968;28;1222;-53
2022/09/22 00:45:03;;;;;;;;;;;;;;;17.28;47.88;100750.41;5019689;28;1112;-53
2022/09/22 00:47:54;;;;;;;;;;;;;;;17.17;47.74;100752.34;5019658;28;1243;-51
2022/09/22 00:50:21;;;;;;;;;;;;;;;17.57;48.13;100749.75;5014247;28;1894;-51
2022/09/22 00:52:49;;;;;;;;;;;;;;;17.19;47.76;100757.56;5002128;28;1156;-51
2022/09/22 00:55:16;;;;;;;;;;;;;;;17.04;47.19;100752.91;5018824;28;1143;-51
2022/09/22 00:57:41;;;;;;;;;;;;;;;18.15;47.38;100749.22;5018966;28;1171;-52
2022/09/22 01:00:07;;;;;;;;;;;;;;;17.34;48.21;100752.03;5001919;28;1226;-52
2022/09/22 01:02:33;;;;;;;;;;;;;;;17.17;47.44;100759.78;5018975;28;1151;-53
2022/09/22 01:04:59;;;;;;;;;;;;;;;17.19;47.57;100760.31;5019121;28;1132;-51
2022/09/22 01:07:25;;;;;;;;;;;;;;;17.50;47.94;100760.22;5018949;28;1207;-51
2022/09/22 01:09:51;;;;;;;;;;;;;;;17.27;47.49;100762.47;5019276;28;1883;-54
2022/09/22 01:12:17;;;;;;;;;;;;;;;17.05;46.90;100765.53;5019406;28;1203;-52
2022/09/22 01:14:51;;;;;;;;;;;;;;;18.00;47.68;100750.13;5018710;28;1148;-52
2022/09/22 01:17:16;;;;;;;;;;;;;;;17.30;48.12;100750.13;5019109;28;1100;-51
2022/09/22 01:19:50;;;;;;;;;;;;;;;17.05;47.38;100758.13;5018607;28;1263;-53
2022/09/22 01:22:31;;;;;;;;;;;;;;;16.98;46.82;100748.53;5012004;28;1235;-53
2022/09/22 01:25:32;;;;;;;;;;;;;;;17.96;47.26;100760.03;4988430;28;1112;-53
2022/09/22 01:28:03;;;;;;;;;;;;;;;17.21;47.42;100760.88;4920032;29;1256;-50
2022/09/22 01:30:32;;;;;;;;;;;;;;;18.78;47.37;100742.94;4995768;28;1967;-50
2022/09/22 01:33:00;;;;;;;;;;;;;;;15.00;56.34;100766.56;5018545;28;1168;-50
2022/09/22 01:35:40;;;;;;;;;;;;;;;17.68;50.81;100761.53;5001158;28;1120;-49
2022/09/22 01:38:08;;;;;;;;;;;;;;;15.70;56.05;100764.47;5018491;28;1124;-50
2022/09/22 01:40:53;;;;;;;;;;;;;;;15.89;52.98;100769.50;5017147;28;1159;-48
2022/09/22 01:43:31;;;;;;;;;;;;;;;18.31;50.54;100763.69;5000744;28;1156;-49
2022/09/22 01:45:56;;;;;;;;;;;;;;;17.24;50.80;100763.84;4988747;28;1179;-52
2022/09/22 01:48:26;;;;;;;;;;;;;;;17.01;49.67;100759.81;5000001;28;1302;-53
2022/09/22 01:50:56;;;;;;;;;;;;;;;17.96;50.07;100768.28;5012366;28;1964;-53
2022/09/22 01:53:23;;;;;;;;;;;;;;;17.31;49.74;100771.00;4993655;28;1200;-52
2022/09/22 01:55:50;;;;;;;;;;;;;;;17.04;48.59;100761.13;4998533;28;1128;-51
2022/09/22 01:58:16;;;;;;;;;;;;;;;16.99;47.78;100767.47;5000688;28;1167;-48
2022/09/22 02:00:43;;;;;;;;;;;;;;;17.26;47.99;100771.81;4998636;28;1214;-52
2022/09/22 02:03:10;;;;;;;;;;;;;;;17.60;49.34;100765.69;5000471;28;1211;-52
2022/09/22 02:05:37;;;;;;;;;;;;;;;17.23;48.43;100762.22;5000533;28;1218;-54
2022/09/22 02:08:06;;;;;;;;;;;;;;;17.00;47.46;100768.28;5000503;28;941;-53
2022/09/22 02:10:33;;;;;;;;;;;;;;;17.33;47.87;100766.84;5000070;28;1965;-50
2022/09/22 02:12:58;;;;;;;;;;;;;;;17.28;48.40;100759.47;5000608;28;1147;-54
2022/09/22 02:18:12;;;;;;;;;;;;;;;17.81;48.21;100757.34;5017032;28;1139;-51
2022/09/22 02:20:37;;;;;;;;;;;;;;;17.13;48.40;100758.69;5000553;28;822;-48
2022/09/22 02:23:03;;;;;;;;;;;;;;;18.33;48.23;100755.97;5015352;28;1294;-49
2022/09/22 02:25:29;;;;;;;;;;;;;;;15.03;55.94;100757.81;5017600;28;1191;-53
2022/09/22 02:27:54;;;;;;;;;;;;;;;16.13;50.89;100766.28;5004293;28;1112;-52
2022/09/22 02:30:21;;;;;;;;;;;;;;;18.04;49.71;100756.69;5016550;28;1973;-54
2022/09/22 02:32:47;;;;;;;;;;;;;;;17.20;50.07;100759.22;5017128;28;897;-55
2022/09/22 02:35:12;;;;;;;;;;;;;;;17.18;49.64;100755.91;5016760;28;1125;-53
2022/09/22 02:37:39;;;;;;;;;;;;;;;17.76;49.61;100758.19;5016319;28;1246;-52
2022/09/22 02:40:25;;;;;;;;;;;;;;;17.22;49.06;100762.50;5017288;28;1202;-52
2022/09/22 02:42:53;;;;;;;;;;;;;;;17.92;49.33;100765.31;5016376;28;1176;-52
2022/09/22 02:45:21;;;;;;;;;;;;;;;17.44;49.70;100751.97;5014689;28;1143;-52
2022/09/22 02:47:48;;;;;;;;;;;;;;;17.09;48.55;100759.22;5015443;28;1183;-52
2022/09/22 02:50:14;;;;;;;;;;;;;;;17.66;48.85;100758.25;5016217;28;1894;-50
2022/09/22 02:52:40;;;;;;;;;;;;;;;17.59;48.82;100753.84;5016149;28;1238;-53
2022/09/22 02:55:06;;;;;;;;;;;;;;;17.17;48.29;100762.53;5016963;28;1362;-52
2022/09/22 02:57:31;;;;;;;;;;;;;;;17.14;48.32;100771.28;5014862;28;1147;-55
2022/09/22 02:59:56;;;;;;;;;;;;;;;17.87;48.37;100765.28;5017019;28;1195;-51
2022/09/22 03:02:22;;;;;;;;;;;;;;;17.34;48.54;100767.69;5015995;28;1190;-49
2022/09/22 03:04:50;;;;;;;;;;;;;;;18.83;47.89;100766.03;5017167;28;1103;-51
2022/09/22 03:07:16;;;;;;;;;;;;;;;14.64;57.76;100764.34;5016638;28;1143;-52
2022/09/22 03:09:41;;;;;;;;;;;;;;;17.24;51.73;100760.31;5016489;28;1219;-50
2022/09/22 03:12:07;;;;;;;;;;;;;;;17.55;50.96;100761.03;5016734;28;1992;-51
2022/09/22 03:14:32;;;;;;;;;;;;;;;14.97;56.67;100759.69;5017487;28;1155;-51
2022/09/22 03:16:57;;;;;;;;;;;;;;;17.09;52.06;100756.47;5016495;28;1127;-51
2022/09/22 03:19:23;;;;;;;;;;;;;;;17.39;51.47;100754.75;5014045;28;1171;-49
2022/09/22 03:21:48;;;;;;;;;;;;;;;17.03;50.00;100754.84;5016981;28;1001;-49
2022/09/22 03:24:14;;;;;;;;;;;;;;;17.35;50.45;100741.84;5016512;28;1225;-50
2022/09/22 03:26:39;;;;;;;;;;;;;;;17.34;50.31;100756.69;5016574;28;1116;-50
2022/09/22 03:29:05;;;;;;;;;;;;;;;17.08;49.03;100759.50;5016541;28;1229;-50
2022/09/22 03:31:30;;;;;;;;;;;;;;;16.79;48.51;100759.22;5015882;28;1925;-50
2022/09/22 03:33:56;;;;;;;;;;;;;;;17.82;49.18;100759.00;5016644;28;1117;-50
2022/09/22 03:36:22;;;;;;;;;;;;;;;17.19;48.96;100763.06;5016547;28;1151;-50
2022/09/22 03:38:47;;;;;;;;;;;;;;;17.92;49.16;100762.56;5016332;28;1337;-50
2022/09/22 03:41:13;;;;;;;;;;;;;;;17.67;49.67;100765.38;5016329;28;1212;-50
2022/09/22 03:43:38;;;;;;;;;;;;;;;17.20;48.98;100772.94;5016332;28;1156;-53
2022/09/22 03:46:03;;;;;;;;;;;;;;;18.58;48.63;100774.25;5016562;28;1166;-53
2022/09/22 03:48:29;;;;;;;;;;;;;;;14.83;57.11;100772.16;5010545;28;1267;-47
2022/09/22 03:50:55;;;;;;;;;;;;;;;16.50;49.82;100770.75;5016266;28;1910;-49
2022/09/22 03:53:21;;;;;;;;;;;;;;;18.10;50.07;100763.84;5016371;28;1116;-51
2022/09/22 03:55:47;;;;;;;;;;;;;;;17.23;50.28;100764.13;5016653;28;1152;-50
2022/09/22 03:58:12;;;;;;;;;;;;;;;18.09;50.21;100766.84;5016326;28;1128;-58
2022/09/22 04:00:37;;;;;;;;;;;;;;;15.89;55.98;100766.75;5002451;28;974;-54
2022/09/22 04:03:03;;;;;;;;;;;;;;;15.95;53.32;100771.19;5016396;28;1215;-56
2022/09/22 04:05:28;;;;;;;;;;;;;;;18.02;51.36;100780.94;5020462;28;1128;-45
2022/09/22 04:07:54;;;;;;;;;;;;;;;17.30;51.32;100783.09;5020268;28;1211;-43
2022/09/22 04:10:20;;;;;;;;;;;;;;;17.01;49.91;100784.53;5019040;28;1966;-48
2022/09/22 04:12:45;;;;;;;;;;;;;;;16.89;48.59;100787.53;5020332;28;1136;-47
2022/09/22 04:15:11;;;;;;;;;;;;;;;16.85;48.27;100794.66;5018969;28;1046;-47
2022/09/22 04:17:36;;;;;;;;;;;;;;;17.24;49.39;100796.84;5019578;28;1246;-47
2022/09/22 04:20:02;;;;;;;;;;;;;;;16.95;48.63;100793.84;5019705;28;1219;-46
2022/09/22 04:22:28;;;;;;;;;;;;;;;18.10;49.14;100791.34;5011452;28;1136;-44
2022/09/22 04:24:53;;;;;;;;;;;;;;;17.32;49.38;100792.72;5014782;28;1139;-48
2022/09/22 04:27:19;;;;;;;;;;;;;;;17.45;49.47;100796.81;5019578;28;1358;-47
2022/09/22 04:29:44;;;;;;;;;;;;;;;17.89;49.63;100793.34;5019786;28;1227;-46
2022/09/22 04:32:10;;;;;;;;;;;;;;;17.31;49.25;100796.56;5019160;28;1902;-45
2022/09/22 04:34:35;;;;;;;;;;;;;;;17.13;48.24;100805.38;5019624;28;1187;-46
2022/09/22 04:37:00;;;;;;;;;;;;;;;18.38;48.69;100805.47;5019915;28;1136;-49
2022/09/22 04:39:27;;;;;;;;;;;;;;;17.59;49.31;100805.28;5018450;28;1192;-44
2022/09/22 04:41:53;;;;;;;;;;;;;;;17.22;48.47;100796.31;5019269;28;1314;-44
2022/09/22 04:44:18;;;;;;;;;;;;;;;17.10;47.46;100802.06;5019363;28;1231;-46
2022/09/22 04:46:44;;;;;;;;;;;;;;;17.82;48.42;100808.50;5018681;28;1341;-46
2022/09/22 04:49:11;;;;;;;;;;;;;;;17.30;48.51;100811.38;5019558;28;1235;-46
2022/09/22 04:51:36;;;;;;;;;;;;;;;18.85;48.12;100818.94;5018598;28;1902;-46
2022/09/22 04:54:02;;;;;;;;;;;;;;;15.19;58.35;100824.47;5018612;28;1314;-44
2022/09/22 04:56:27;;;;;;;;;;;;;;;16.68;51.60;100827.88;5018511;28;1207;-48
2022/09/22 04:58:53;;;;;;;;;;;;;;;16.90;49.37;100832.28;5019149;28;1338;-47
2022/09/22 05:01:18;;;;;;;;;;;;;;;17.70;49.89;100837.16;5019264;28;1136;-47
2022/09/22 05:03:44;;;;;;;;;;;;;;;17.19;49.63;100840.00;5019039;28;1186;-44
2022/09/22 05:06:09;;;;;;;;;;;;;;;18.19;49.68;100832.84;5019299;28;1148;-44
2022/09/22 05:08:35;;;;;;;;;;;;;;;15.67;56.89;100839.03;5018338;28;1258;-48
2022/09/22 05:11:00;;;;;;;;;;;;;;;16.99;54.37;100838.91;5018489;28;1899;-47
2022/09/22 05:13:26;;;;;;;;;;;;;;;19.12;49.70;100846.81;5018825;28;1104;-48
2022/09/22 05:15:51;;;;;;;;;;;;;;;15.01;59.20;100847.59;5017232;28;1372;-43
2022/09/22 05:18:16;;;;;;;;;;;;;;;16.57;51.50;100853.66;5018956;28;1235;-46
2022/09/22 05:20:42;;;;;;;;;;;;;;;18.03;51.78;100848.59;5018798;28;1207;-46
2022/09/22 05:23:08;;;;;;;;;;;;;;;17.23;51.52;100846.59;5008025;28;1186;-46
2022/09/22 05:25:33;;;;;;;;;;;;;;;17.03;50.00;100847.44;5018864;28;1164;-47
2022/09/22 05:27:59;;;;;;;;;;;;;;;16.84;48.83;100856.16;5018379;28;1183;-47
2022/09/22 05:30:24;;;;;;;;;;;;;;;17.93;50.27;100862.41;5018515;28;1903;-43
2022/09/22 05:32:50;;;;;;;;;;;;;;;17.21;49.94;100857.03;5018120;28;1116;-49
2022/09/22 05:35:16;;;;;;;;;;;;;;;16.96;48.95;100855.94;5019738;28;1197;-47
2022/09/22 05:37:42;;;;;;;;;;;;;;;16.90;47.73;100854.25;4998967;28;1021;-49
2022/09/22 05:40:08;;;;;;;;;;;;;;;18.09;47.97;100853.00;5016635;28;1116;-48
2022/09/22 05:42:37;;;;;;;;;;;;;;;17.82;48.50;100849.75;5016894;28;1116;-49
2022/09/22 05:45:03;;;;;;;;;;;;;;;17.40;49.64;100849.03;5016276;28;1024;-50
2022/09/22 05:47:28;;;;;;;;;;;;;;;17.14;50.34;100848.22;4999578;28;1424;-49
2022/09/22 05:49:54;;;;;;;;;;;;;;;17.03;50.86;100850.19;5016588;28;1223;-47
2022/09/22 05:52:20;;;;;;;;;;;;;;;16.87;51.20;100857.53;5016317;28;1979;-45
2022/09/22 05:54:45;;;;;;;;;;;;;;;16.75;51.27;100855.06;5016893;28;1214;-45
2022/09/22 05:57:11;;;;;;;;;;;;;;;16.66;51.69;100852.03;5014339;28;1072;-48
2022/09/22 05:59:36;;;;;;;;;;;;;;;16.58;51.99;100855.31;5016729;28;1088;-50
2022/09/22 06:02:02;;;;;;;;;;;;;;;16.47;52.25;100857.22;5015518;28;1212;-48
2022/09/22 06:04:28;;;;;;;;;;;;;;;16.39;52.19;100858.53;5015948;28;1109;-45
2022/09/22 06:06:53;;;;;;;;;;;;;;;16.32;52.44;100857.97;5016444;28;1238;-44
2022/09/22 06:09:18;;;;;;;;;;;;;;;16.25;52.52;100857.41;5015866;28;1152;-48
2022/09/22 06:11:44;;;;;;;;;;;;;;;16.21;52.83;100856.28;5016392;28;1891;-49
2022/09/22 06:14:09;;;;;;;;;;;;;;;16.08;52.89;100858.44;5015641;28;1151;-47
2022/09/22 06:16:35;;;;;;;;;;;;;;;16.90;51.22;100854.25;5016360;28;1085;-47
2022/09/22 06:19:00;;;;;;;;;;;;;;;17.15;50.75;100852.63;5016171;28;1089;-47
2022/09/22 06:21:26;;;;;;;;;;;;;;;16.58;51.99;100847.09;5015247;28;1069;-48
2022/09/22 06:23:51;;;;;;;;;;;;;;;16.37;52.62;100844.28;5016259;28;930;-46
2022/09/22 06:26:17;;;;;;;;;;;;;;;16.26;53.01;100845.34;5015860;28;1077;-46
2022/09/22 06:28:42;;;;;;;;;;;;;;;16.48;52.34;100841.56;5016343;28;1121;-49
2022/09/22 06:31:08;;;;;;;;;;;;;;;17.42;49.77;100847.66;5015929;28;1921;-49
2022/09/22 06:33:34;;;;;;;;;;;;;;;16.73;51.55;100846.25;5016552;28;1159;-49
2022/09/22 06:36:00;;;;;;;;;;;;;;;16.47;52.41;100848.97;5015970;28;1089;-49
2022/09/22 06:38:26;;;;;;;;;;;;;;;16.34;52.63;100852.22;5015154;28;1109;-44
2022/09/22 06:40:51;;;;;;;;;;;;;;;16.21;52.97;100853.56;5015948;28;1195;-48
2022/09/22 06:43:24;;;;;;;;;;;;;;;16.10;53.25;100854.63;5016102;28;1192;-48
2022/09/22 06:45:52;;;;;;;;;;;;;;;16.68;52.21;100855.31;5015070;28;1242;-48
2022/09/22 06:48:18;;;;;;;;;;;;;;;17.47;49.75;100848.75;5015886;28;1275;-49
2022/09/22 06:50:47;;;;;;;;;;;;;;;16.73;51.85;100863.56;5016008;28;1970;-43
2022/09/22 06:53:12;;;;;;;;;;;;;;;16.48;52.40;100863.50;5015569;28;1192;-51
2022/09/22 06:55:40;;;;;;;;;;;;;;;16.29;52.89;100858.53;5015976;28;1195;-47
2022/09/22 06:58:05;;;;;;;;;;;;;;;16.13;53.11;100859.56;5014834;28;1144;-46
2022/09/22 07:00:31;;;;;;;;;;;;;;;17.09;51.28;100863.63;5016003;28;1231;-45
2022/09/22 07:03:07;;;;;;;;;;;;;;;17.36;50.18;100858.94;5016071;28;1168;-46
2022/09/22 07:05:33;;;;;;;;;;;;;;;16.70;52.08;100858.59;4998317;28;1191;-46
2022/09/22 07:07:59;;;;;;;;;;;;;;;16.46;52.54;100857.47;5015103;28;1152;-48
2022/09/22 07:10:24;;;;;;;;;;;;;;;16.32;53.01;100857.16;5015385;28;1901;-46
2022/09/22 07:12:50;;;;;;;;;;;;;;;16.20;53.16;100854.63;5015306;28;1069;-50
2022/09/22 07:15:15;;;;;;;;;;;;;;;16.95;51.62;100865.25;5015174;28;1136;-47
2022/09/22 07:17:41;;;;;;;;;;;;;;;17.17;51.04;100869.69;5015330;28;1196;-47
2022/09/22 07:20:07;;;;;;;;;;;;;;;16.57;52.58;100864.63;5015939;28;1101;-47
2022/09/22 07:22:33;;;;;;;;;;;;;;;16.47;52.83;100870.13;5013898;28;1222;-49
2022/09/22 07:25:01;;;;;;;;;;;;;;;16.29;53.04;100866.75;5015138;28;897;-50
2022/09/22 07:27:26;;;;;;;;;;;;;;;17.44;50.55;100864.69;5014856;28;1223;-46
2022/09/22 07:29:53;;;;;;;;;;;;;;;17.17;50.96;100873.25;5015198;28;1108;-47
2022/09/22 07:32:20;;;;;;;;;;;;;;;16.67;52.56;100880.31;5015180;28;1906;-50
2022/09/22 07:34:46;;;;;;;;;;;;;;;16.47;53.08;100875.59;5015306;28;1055;-48
2022/09/22 07:37:13;;;;;;;;;;;;;;;16.35;53.29;100881.31;5014694;28;1120;-47
2022/09/22 07:39:39;;;;;;;;;;;;;;;16.65;52.58;100877.00;4995547;28;1136;-46
2022/09/22 07:42:04;;;;;;;;;;;;;;;17.64;50.10;100875.94;5015166;28;1093;-50
2022/09/22 07:47:14;;;;;;;;;;;;;;;16.54;52.75;100884.41;5006264;28;1002;-52
2022/09/22 07:49:39;;;;;;;;;;;;;;;16.41;53.26;100888.47;5003200;28;1089;-49
2022/09/22 07:52:05;;;;;;;;;;;;;;;16.27;53.46;100879.09;5014692;28;1967;-46
2022/09/22 07:54:33;;;;;;;;;;;;;;;16.71;52.65;100879.47;5014617;28;1069;-50
2022/09/22 07:56:58;;;;;;;;;;;;;;;17.41;50.62;100879.00;5012031;28;1172;-49
2022/09/22 07:59:24;;;;;;;;;;;;;;;16.73;52.55;100874.56;5012174;28;946;-49
2022/09/22 08:01:50;;;;;;;;;;;;;;;16.48;53.14;100882.72;5013541;28;1058;-48
2022/09/22 08:04:17;;;;;;;;;;;;;;;16.36;53.21;100880.22;5014383;28;1207;-47
2022/09/22 08:06:43;;;;;;;;;;;;;;;16.24;53.43;100874.97;5014201;28;1238;-50
2022/09/22 08:09:09;;;;;;;;;;;;;;;16.85;52.58;100877.03;5015265;28;1030;-49
2022/09/22 08:11:35;;;;;;;;;;;;;;;17.29;51.01;100872.94;5014436;28;1979;-48
2022/09/22 08:14:01;;;;;;;;;;;;;;;16.71;52.55;100870.44;5014747;28;1500;-48
2022/09/22 08:16:27;;;;;;;;;;;;;;;16.51;53.10;100862.97;5002137;28;1132;-47
2022/09/22 08:18:54;;;;;;;;;;;;;;;16.32;53.76;100857.16;5013374;28;1141;-48
2022/09/22 08:21:20;;;;;;;;;;;;;;;17.17;51.73;100850.44;5013754;28;1203;-46
2022/09/22 08:23:46;;;;;;;;;;;;;;;17.19;51.28;100848.22;5014231;28;1092;-45
2022/09/22 08:26:12;;;;;;;;;;;;;;;16.70;52.79;100853.13;5014561;28;1243;-47
2022/09/22 08:28:37;;;;;;;;;;;;;;;16.50;53.39;100853.09;5013153;28;1327;-47
2022/09/22 08:31:02;;;;;;;;;;;;;;;16.37;53.32;100848.97;5015153;28;1902;-48
2022/09/22 08:33:28;;;;;;;;;;;;;;;16.28;53.49;100842.34;5014687;28;1228;-45
2022/09/22 08:35:57;;;;;;;;;;;;;;;17.02;52.35;100838.34;5014118;28;1252;-45
2022/09/22 08:38:24;;;;;;;;;;;;;;;17.05;51.79;100837.78;5014243;28;1219;-48
2022/09/22 08:41:08;;;;;;;;;;;;;;;16.62;53.10;100839.94;5014879;28;1235;-47
2022/09/22 08:43:33;;;;;;;;;;;;;;;16.40;53.53;100837.44;5012640;28;1129;-45
2022/09/22 08:46:00;;;;;;;;;;;;;;;16.25;53.92;100851.94;4996359;28;1311;-48
2022/09/22 08:53:56;;;;;;;;;;;;;;;16.72;52.88;100859.19;5018656;28;1120;-45
2022/09/22 08:56:29;;;;;;;;;;;;;;;16.49;53.46;100851.44;5001109;28;1148;-49
2022/09/22 08:59:01;;;;;;;;;;;;;;;16.37;53.88;100859.94;5017211;28;1172;-49
2022/09/22 09:01:45;;;;;;;;;;;;;;;17.29;51.62;100853.72;5017885;28;1112;-49
2022/09/22 09:04:10;;;;;;;;;;;;;;;17.15;51.87;100847.94;5015317;28;1177;-51
2022/09/22 09:06:38;;;;;;;;;;;;;;;16.67;53.32;100848.19;5017477;28;1231;-50
2022/09/22 09:09:19;;;;;;;;;;;;;;;16.51;53.48;100843.75;5000274;28;1084;-51
2022/09/22 09:11:57;;;;;;;;;;;;;;;16.40;53.91;100834.69;5016937;28;1902;-49
2022/09/22 09:14:25;;;;;;;;;;;;;;;16.28;53.82;100840.41;5017996;28;1104;-49
2022/09/22 09:16:50;;;;;;;;;;;;;;;17.60;50.97;100838.00;5017878;28;1152;-51
2022/09/22 09:19:39;;;;;;;;;;;;;;;16.98;52.65;100842.75;5017560;28;1163;-50
2022/09/22 09:22:25;;;;;;;;;;;;;;;16.59;53.61;100832.25;5006589;28;1182;-51
2022/09/22 09:24:55;;;;;;;;;;;;;;;16.46;53.78;100835.53;5016799;28;1164;-47
2022/09/22 09:27:22;;;;;;;;;;;;;;;16.36;53.77;100839.88;4999455;28;1144;-49
2022/09/22 09:29:49;;;;;;;;;;;;;;;16.72;53.52;100845.44;5000142;28;1190;-47
2022/09/22 09:32:20;;;;;;;;;;;;;;;17.53;50.95;100834.72;5017207;28;1917;-49
2022/09/22 09:34:46;;;;;;;;;;;;;;;16.85;52.76;100841.34;4995383;28;1187;-46
2022/09/22 09:37:12;;;;;;;;;;;;;;;16.60;53.55;100842.13;5016783;28;1163;-47
2022/09/22 09:39:38;;;;;;;;;;;;;;;16.41;54.22;100834.41;4999744;28;1132;-48
2022/09/22 09:42:23;;;;;;;;;;;;;;;16.31;54.27;100839.03;4998529;28;1176;-46
2022/09/22 09:44:52;;;;;;;;;;;;;;;17.07;52.77;100829.28;5017003;28;1206;-51
2022/09/22 09:47:18;;;;;;;;;;;;;;;17.27;52.12;100836.69;4999658;28;1139;-51
2022/09/22 09:49:44;;;;;;;;;;;;;;;16.77;53.18;100853.69;5017000;28;1139;-46
2022/09/22 09:52:10;;;;;;;;;;;;;;;16.54;53.93;100843.22;4999335;28;1915;-50
2022/09/22 09:54:36;;;;;;;;;;;;;;;16.45;54.07;100840.16;5017598;28;1199;-47
2022/09/22 09:57:09;;;;;;;;;;;;;;;16.31;54.43;100839.84;5016007;28;1081;-49
2022/09/22 10:02:28;;;;;;;;;;;;;;;17.73;51.18;100833.84;5008636;28;1061;-47
2022/09/22 10:05:04;;;;;;;;;;;;;;;16.92;53.08;100827.38;4990724;28;1089;-50
2022/09/22 10:07:30;;;;;;;;;;;;;;;16.58;53.95;100825.94;4999324;28;1207;-50
2022/09/22 10:09:56;;;;;;;;;;;;;;;16.41;54.50;100817.09;4998920;28;1121;-50
2022/09/22 10:12:23;;;;;;;;;;;;;;;17.21;52.82;100813.06;4997708;28;1983;-50
2022/09/22 10:14:52;;;;;;;;;;;;;;;17.14;52.76;100812.50;5016919;28;1080;-49
2022/09/22 10:17:19;;;;;;;;;;;;;;;16.68;53.86;100819.63;5015100;28;1054;-51
2022/09/22 10:19:44;;;;;;;;;;;;;;;16.51;54.38;100819.03;4998178;28;1104;-48
2022/09/22 10:22:23;;;;;;;;;;;;;;;16.40;54.65;100816.28;5015594;28;1077;-50
2022/09/22 10:24:58;;;;;;;;;;;;;;;16.29;54.79;100809.13;5015755;28;954;-48
2022/09/22 10:27:25;;;;;;;;;;;;;;;17.67;51.81;100810.22;5015262;28;1219;-50
2022/09/22 10:30:09;;;;;;;;;;;;;;;16.97;53.33;100807.31;5016383;28;1112;-51
2022/09/22 10:32:35;;;;;;;;;;;;;;;16.57;54.55;100816.03;5016364;28;1906;-52
2022/09/22 10:35:00;;;;;;;;;;;;;;;16.42;54.50;100811.38;5015019;28;1196;-47
2022/09/22 10:37:26;;;;;;;;;;;;;;;16.35;55.02;100810.78;4998199;28;1252;-49
2022/09/22 10:39:52;;;;;;;;;;;;;;;17.67;51.96;100801.97;5015889;28;1144;-47
2022/09/22 10:42:18;;;;;;;;;;;;;;;16.86;53.75;100792.75;5016408;28;1100;-49
2022/09/22 10:44:43;;;;;;;;;;;;;;;16.61;54.38;100808.09;5015930;28;1238;-50
2022/09/22 10:47:15;;;;;;;;;;;;;;;16.45;54.72;100801.75;5015771;28;1136;-48
2022/09/22 10:49:56;;;;;;;;;;;;;;;16.31;54.86;100801.44;5015664;28;1184;-52
2022/09/22 10:52:28;;;;;;;;;;;;;;;16.86;54.25;100809.22;4998463;28;2022;-47
2022/09/22 10:54:53;;;;;;;;;;;;;;;17.28;52.60;100808.13;5015711;28;1179;-48
2022/09/22 10:57:35;;;;;;;;;;;;;;;16.71;54.28;100804.53;5016200;28;1121;-48
2022/09/22 11:00:03;;;;;;;;;;;;;;;16.51;54.75;100802.56;5015403;28;1180;-47
2022/09/22 11:02:38;;;;;;;;;;;;;;;16.38;54.95;100796.53;4998175;28;1502;-47
2022/09/22 11:05:16;;;;;;;;;;;;;;;16.25;55.21;100788.81;4998546;28;1172;-49
2022/09/22 11:13:41;;;;;;;;;;;;;;;16.81;54.15;100792.72;5011349;28;1426;-48
2022/09/22 11:16:07;;;;;;;;;;;;;;;16.52;54.85;100790.50;5015827;28;1148;-48
2022/09/22 11:18:51;;;;;;;;;;;;;;;16.38;55.00;100796.53;5015459;28;1223;-47
2022/09/22 11:21:39;;;;;;;;;;;;;;;16.98;54.01;100790.53;4983886;28;1072;-52
2022/09/22 11:24:23;;;;;;;;;;;;;;;17.21;52.85;100780.09;5014487;28;1196;-48
2022/09/22 11:26:49;;;;;;;;;;;;;;;16.64;54.76;100790.25;5015207;28;1152;-46
2022/09/22 11:29:29;;;;;;;;;;;;;;;16.53;54.84;100790.22;5015449;28;1128;-49
2022/09/22 11:32:04;;;;;;;;;;;;;;;16.37;55.13;100786.66;5015211;28;1906;-49
2022/09/22 11:34:45;;;;;;;;;;;;;;;16.26;55.28;100787.72;5014456;28;1175;-48
2022/09/22 11:37:29;;;;;;;;;;;;;;;17.47;52.98;100785.53;5015457;28;1231;-49
2022/09/22 11:40:03;;;;;;;;;;;;;;;17.02;53.65;100777.09;5013750;28;953;-51
2022/09/22 11:42:34;;;;;;;;;;;;;;;16.62;54.79;100779.56;5002304;28;1054;-50
2022/09/22 11:45:12;;;;;;;;;;;;;;;16.44;55.00;100778.16;5015418;28;1132;-50
2022/09/22 11:47:37;;;;;;;;;;;;;;;16.31;55.23;100770.44;4985291;28;1140;-49
2022/09/22 11:50:15;;;;;;;;;;;;;;;17.15;53.61;100772.94;5015153;28;1096;-47
2022/09/22 11:52:50;;;;;;;;;;;;;;;17.08;53.72;100762.22;5002309;28;1113;-50
2022/09/22 11:55:44;;;;;;;;;;;;;;;16.64;54.75;100755.38;5014939;28;1120;-49
2022/09/22 11:58:17;;;;;;;;;;;;;;;16.46;55.06;100753.19;4991669;28;1232;-51
2022/09/22 12:00:47;;;;;;;;;;;;;;;16.26;55.40;100760.28;4996957;28;1177;-49
2022/09/22 12:03:22;;;;;;;;;;;;;;;17.30;53.53;100767.41;4997140;28;1155;-50
2022/09/22 12:05:57;;;;;;;;;;;;;;;17.12;53.70;100757.84;4997789;28;1159;-49
2022/09/22 12:08:24;;;;;;;;;;;;;;;16.67;54.94;100759.50;4998234;28;1140;-51
2022/09/22 12:10:50;;;;;;;;;;;;;;;16.53;55.08;100759.22;5015026;28;1964;-50
2022/09/22 12:13:19;;;;;;;;;;;;;;;16.39;55.45;100754.25;5014340;28;1096;-50
2022/09/22 12:16:04;;;;;;;;;;;;;;;17.19;53.87;100760.31;5015133;28;1077;-49
2022/09/22 12:18:35;;;;;;;;;;;;;;;17.12;53.96;100760.59;5014650;28;1159;-48
2022/09/22 12:21:19;;;;;;;;;;;;;;;16.72;54.75;100768.56;4997760;28;1175;-50
2022/09/22 12:23:47;;;;;;;;;;;;;;;16.55;55.03;100774.31;5014577;28;1179;-51
2022/09/22 12:26:26;;;;;;;;;;;;;;;16.41;55.42;100768.53;5017880;28;1156;-47
2022/09/22 12:28:51;;;;;;;;;;;;;;;16.26;55.64;100757.56;5013231;28;1194;-49
2022/09/22 12:31:18;;;;;;;;;;;;;;;16.22;55.53;100761.94;5017451;28;1902;-49
2022/09/22 12:33:45;;;;;;;;;;;;;;;17.02;54.20;100766.91;5017610;28;1191;-49
2022/09/22 12:36:11;;;;;;;;;;;;;;;17.35;53.62;100767.41;5018583;28;1091;-51
2022/09/22 12:38:37;;;;;;;;;;;;;;;16.76;54.98;100766.91;5016259;28;1104;-47
2022/09/22 12:41:03;;;;;;;;;;;;;;;16.59;55.44;100769.94;5018421;28;1084;-52
2022/09/22 12:43:29;;;;;;;;;;;;;;;16.37;55.60;100761.94;5017465;28;1208;-47
2022/09/22 12:45:55;;;;;;;;;;;;;;;16.30;55.55;100766.88;5004230;28;1334;-50
2022/09/22 12:48:21;;;;;;;;;;;;;;;17.49;53.32;100761.31;5016677;28;1116;-49
2022/09/22 12:50:47;;;;;;;;;;;;;;;17.19;53.99;100766.59;5018076;28;1967;-47
2022/09/22 12:53:26;;;;;;;;;;;;;;;16.73;55.18;100764.72;5016444;28;1058;-51
2022/09/22 12:55:52;;;;;;;;;;;;;;;16.49;55.46;100767.16;5004904;28;1120;-50
2022/09/22 12:58:18;;;;;;;;;;;;;;;16.40;55.46;100764.16;5018251;28;1127;-47
2022/09/22 13:00:43;;;;;;;;;;;;;;;16.31;55.53;100765.78;5018097;28;1100;-50
2022/09/22 13:03:24;;;;;;;;;;;;;;;16.37;55.69;100761.94;5017709;28;1218;-49
2022/09/22 13:05:50;;;;;;;;;;;;;;;17.48;53.32;100752.25;5017808;28;1156;-47
2022/09/22 13:08:17;;;;;;;;;;;;;;;16.81;54.94;100754.28;5016228;28;1192;-48
2022/09/22 13:10:48;;;;;;;;;;;;;;;16.52;55.44;100752.06;5017597;28;1988;-51
2022/09/22 13:13:20;;;;;;;;;;;;;;;16.39;55.55;100754.25;5017460;28;894;-49